sensor_id;sensor_type;location;lat;lon;timestamp;temperature;humidity
15698;DHT22;7949;48.726;9.102;2023-02-28T00:01:22;-2.70;99.90
15698;DHT22;7949;48.726;9.102;2023-02-28T00:03:49;-2.70;99.90
15698;DHT22;7949;48.726;9.102;2023-02-28T00:06:16;-2.70;99.90
15698;DHT22;7949;48.726;9.102;2023-02-28T00:08:45;-2.70;99.90
15698;DHT22;7949;48.726;9.102;2023-02-28T00:11:14;-2.70;99.90
15698;DHT22;7949;48.726;9.102;2023-02-28T00:13:44;-2.70;99.90
15698;DHT22;7949;48.726;9.102;2023-02-28T00:16:13;-2.80;99.90
15698;DHT22;7949;48.726;9.102;2023-02-28T00:18:41;-2.80;99.90
15698;DHT22;7949;48.726;9.102;2023-02-28T00:21:08;-2.80;99.90
15698;DHT22;7949;48.726;9.102;2023-02-28T00:23:36;-2.80;99.90
15698;DHT22;7949;48.726;9.102;2023-02-28T00:26:04;-2.80;99.90
15698;DHT22;7949;48.726;9.102;2023-02-28T00:28:31;-2.80;99.90
15698;DHT22;7949;48.726;9.102;2023-02-28T00:30:58;-2.90;99.90
15698;DHT22;7949;48.726;9.102;2023-02-28T00:33:25;-2.90;99.90
15698;DHT22;7949;48.726;9.102;2023-02-28T00:35:52;-2.80;99.90
15698;DHT22;7949;48.726;9.102;2023-02-28T00:38:27;-2.90;99.90
15698;DHT22;7949;48.726;9.102;2023-02-28T00:40:53;-3.00;99.90
15698;DHT22;7949;48.726;9.102;2023-02-28T00:43:22;-3.00;99.90
15698;DHT22;7949;48.726;9.102;2023-02-28T00:45:49;-3.00;99.90
15698;DHT22;7949;48.726;9.102;2023-02-28T00:48:15;-3.00;99.90
15698;DHT22;7949;48.726;9.102;2023-02-28T00:50:42;-3.00;99.90
15698;DHT22;7949;48.726;9.102;2023-02-28T00:53:09;-3.00;99.90
15698;DHT22;7949;48.726;9.102;2023-02-28T00:55:36;-3.00;99.90
15698;DHT22;7949;48.726;9.102;2023-02-28T00:58:03;-3.10;99.90
15698;DHT22;7949;48.726;9.102;2023-02-28T01:00:31;-3.10;99.90
15698;DHT22;7949;48.726;9.102;2023-02-28T01:02:58;-3.10;99.90
15698;DHT22;7949;48.726;9.102;2023-02-28T01:05:25;-3.10;99.90
15698;DHT22;7949;48.726;9.102;2023-02-28T01:07:52;-3.10;99.90
15698;DHT22;7949;48.726;9.102;2023-02-28T01:10:19;-3.10;99.90
15698;DHT22;7949;48.726;9.102;2023-02-28T01:12:46;-3.10;99.90
15698;DHT22;7949;48.726;9.102;2023-02-28T01:15:13;-3.10;99.90
15698;DHT22;7949;48.726;9.102;2023-02-28T01:17:42;-3.10;99.90
15698;DHT22;7949;48.726;9.102;2023-02-28T01:20:10;-3.20;99.90
15698;DHT22;7949;48.726;9.102;2023-02-28T01:22:37;-3.20;99.90
15698;DHT22;7949;48.726;9.102;2023-02-28T01:25:04;-3.20;99.90
15698;DHT22;7949;48.726;9.102;2023-02-28T01:27:31;-3.20;99.90
15698;DHT22;7949;48.726;9.102;2023-02-28T01:29:59;-3.20;99.90
15698;DHT22;7949;48.726;9.102;2023-02-28T01:32:26;-3.20;99.90
15698;DHT22;7949;48.726;9.102;2023-02-28T01:34:55;-3.30;99.90
15698;DHT22;7949;48.726;9.102;2023-02-28T01:37:22;-3.20;99.90
15698;DHT22;7949;48.726;9.102;2023-02-28T01:39:49;-3.20;99.90
15698;DHT22;7949;48.726;9.102;2023-02-28T01:42:15;-3.30;99.90
15698;DHT22;7949;48.726;9.102;2023-02-28T01:45:02;-3.30;99.90
15698;DHT22;7949;48.726;9.102;2023-02-28T01:47:32;-3.30;99.90
15698;DHT22;7949;48.726;9.102;2023-02-28T01:50:03;-3.30;99.90
15698;DHT22;7949;48.726;9.102;2023-02-28T01:52:31;-3.30;99.90
15698;DHT22;7949;48.726;9.102;2023-02-28T01:55:00;-3.30;99.90
15698;DHT22;7949;48.726;9.102;2023-02-28T01:57:32;-3.30;99.90
15698;DHT22;7949;48.726;9.102;2023-02-28T02:00:05;-3.30;99.90
15698;DHT22;7949;48.726;9.102;2023-02-28T02:02:35;-3.30;99.90
15698;DHT22;7949;48.726;9.102;2023-02-28T02:05:06;-3.30;99.90
15698;DHT22;7949;48.726;9.102;2023-02-28T02:07:36;-3.30;99.90
15698;DHT22;7949;48.726;9.102;2023-02-28T02:10:06;-3.30;99.90
15698;DHT22;7949;48.726;9.102;2023-02-28T02:12:49;-3.30;99.90
15698;DHT22;7949;48.726;9.102;2023-02-28T02:15:26;-3.30;99.90
15698;DHT22;7949;48.726;9.102;2023-02-28T02:18:01;-3.30;99.90
15698;DHT22;7949;48.726;9.102;2023-02-28T02:26:55;-3.30;99.90
15698;DHT22;7949;48.726;9.102;2023-02-28T02:32:58;-3.20;99.90
15698;DHT22;7949;48.726;9.102;2023-02-28T02:35:34;-3.20;99.90
15698;DHT22;7949;48.726;9.102;2023-02-28T02:38:07;-3.10;99.90
15698;DHT22;7949;48.726;9.102;2023-02-28T02:40:40;-3.10;99.90
15698;DHT22;7949;48.726;9.102;2023-02-28T02:43:15;-3.10;99.90
15698;DHT22;7949;48.726;9.102;2023-02-28T02:45:45;-3.00;99.90
15698;DHT22;7949;48.726;9.102;2023-02-28T02:48:17;-3.00;99.90
15698;DHT22;7949;48.726;9.102;2023-02-28T02:50:51;-3.00;99.90
15698;DHT22;7949;48.726;9.102;2023-02-28T02:53:23;-2.90;99.90
15698;DHT22;7949;48.726;9.102;2023-02-28T02:55:53;-3.00;99.90
15698;DHT22;7949;48.726;9.102;2023-02-28T02:58:24;-2.90;99.90
15698;DHT22;7949;48.726;9.102;2023-02-28T03:00:54;-2.80;99.90
15698;DHT22;7949;48.726;9.102;2023-02-28T03:03:22;-2.80;99.90
15698;DHT22;7949;48.726;9.102;2023-02-28T03:05:57;-2.80;99.90
15698;DHT22;7949;48.726;9.102;2023-02-28T03:08:25;-2.80;99.90
15698;DHT22;7949;48.726;9.102;2023-02-28T03:10:56;-2.70;99.90
15698;DHT22;7949;48.726;9.102;2023-02-28T03:13:51;-2.70;99.90
15698;DHT22;7949;48.726;9.102;2023-02-28T03:16:33;-2.70;99.90
15698;DHT22;7949;48.726;9.102;2023-02-28T03:19:31;-2.70;99.90
15698;DHT22;7949;48.726;9.102;2023-02-28T03:22:21;-2.70;99.90
15698;DHT22;7949;48.726;9.102;2023-02-28T03:24:56;-2.60;99.90
15698;DHT22;7949;48.726;9.102;2023-02-28T03:27:28;-2.70;99.90
15698;DHT22;7949;48.726;9.102;2023-02-28T03:30:00;-2.80;99.90
15698;DHT22;7949;48.726;9.102;2023-02-28T03:32:33;-2.80;99.90
15698;DHT22;7949;48.726;9.102;2023-02-28T03:35:03;-2.80;99.90
15698;DHT22;7949;48.726;9.102;2023-02-28T03:37:34;-2.70;99.90
15698;DHT22;7949;48.726;9.102;2023-02-28T03:40:04;-2.80;99.90
15698;DHT22;7949;48.726;9.102;2023-02-28T03:42:36;-2.80;99.90
15698;DHT22;7949;48.726;9.102;2023-02-28T03:45:08;-2.80;99.90
15698;DHT22;7949;48.726;9.102;2023-02-28T03:47:39;-2.70;99.90
15698;DHT22;7949;48.726;9.102;2023-02-28T03:50:12;-2.70;99.90
15698;DHT22;7949;48.726;9.102;2023-02-28T03:52:44;-2.70;99.90
15698;DHT22;7949;48.726;9.102;2023-02-28T03:55:14;-2.70;99.90
15698;DHT22;7949;48.726;9.102;2023-02-28T03:57:51;-2.70;99.90
15698;DHT22;7949;48.726;9.102;2023-02-28T04:00:24;-2.70;99.90
15698;DHT22;7949;48.726;9.102;2023-02-28T04:02:53;-2.70;99.90
15698;DHT22;7949;48.726;9.102;2023-02-28T04:05:21;-2.70;99.90
15698;DHT22;7949;48.726;9.102;2023-02-28T04:07:49;-2.60;99.90
15698;DHT22;7949;48.726;9.102;2023-02-28T04:10:17;-2.70;99.90
15698;DHT22;7949;48.726;9.102;2023-02-28T04:12:44;-2.60;99.90
15698;DHT22;7949;48.726;9.102;2023-02-28T04:15:10;-2.60;99.90
15698;DHT22;7949;48.726;9.102;2023-02-28T04:17:37;-2.60;99.90
15698;DHT22;7949;48.726;9.102;2023-02-28T04:20:05;-2.50;99.90
15698;DHT22;7949;48.726;9.102;2023-02-28T04:22:35;-2.50;99.90
15698;DHT22;7949;48.726;9.102;2023-02-28T04:25:05;-2.50;99.90
15698;DHT22;7949;48.726;9.102;2023-02-28T04:27:32;-2.50;99.90
15698;DHT22;7949;48.726;9.102;2023-02-28T04:29:59;-2.50;99.90
15698;DHT22;7949;48.726;9.102;2023-02-28T04:32:26;-2.50;99.90
15698;DHT22;7949;48.726;9.102;2023-02-28T04:34:53;-2.50;99.90
15698;DHT22;7949;48.726;9.102;2023-02-28T04:37:19;-2.40;99.90
15698;DHT22;7949;48.726;9.102;2023-02-28T04:39:46;-2.50;99.90
15698;DHT22;7949;48.726;9.102;2023-02-28T04:42:15;-2.40;99.90
15698;DHT22;7949;48.726;9.102;2023-02-28T04:44:42;-2.50;99.90
15698;DHT22;7949;48.726;9.102;2023-02-28T04:47:09;-2.40;99.90
15698;DHT22;7949;48.726;9.102;2023-02-28T04:49:36;-2.40;99.90
15698;DHT22;7949;48.726;9.102;2023-02-28T04:52:03;-2.40;99.90
15698;DHT22;7949;48.726;9.102;2023-02-28T04:54:32;-2.40;99.90
15698;DHT22;7949;48.726;9.102;2023-02-28T04:56:59;-2.40;99.90
15698;DHT22;7949;48.726;9.102;2023-02-28T04:59:28;-2.40;99.90
15698;DHT22;7949;48.726;9.102;2023-02-28T05:01:55;-2.40;99.90
15698;DHT22;7949;48.726;9.102;2023-02-28T05:04:22;-2.40;99.90
15698;DHT22;7949;48.726;9.102;2023-02-28T05:06:48;-2.40;99.90
15698;DHT22;7949;48.726;9.102;2023-02-28T05:09:15;-2.30;99.90
15698;DHT22;7949;48.726;9.102;2023-02-28T05:11:42;-2.30;99.90
15698;DHT22;7949;48.726;9.102;2023-02-28T05:14:10;-2.30;99.90
15698;DHT22;7949;48.726;9.102;2023-02-28T05:16:39;-2.40;99.90
15698;DHT22;7949;48.726;9.102;2023-02-28T05:19:06;-2.30;99.90
15698;DHT22;7949;48.726;9.102;2023-02-28T05:21:34;-2.40;99.90
15698;DHT22;7949;48.726;9.102;2023-02-28T05:24:04;-2.30;99.90
15698;DHT22;7949;48.726;9.102;2023-02-28T05:26:34;-2.30;99.90
15698;DHT22;7949;48.726;9.102;2023-02-28T05:29:01;-2.30;99.90
15698;DHT22;7949;48.726;9.102;2023-02-28T05:31:28;-2.20;99.90
15698;DHT22;7949;48.726;9.102;2023-02-28T05:33:56;-2.30;99.90
15698;DHT22;7949;48.726;9.102;2023-02-28T05:36:24;-2.30;99.90
15698;DHT22;7949;48.726;9.102;2023-02-28T05:38:51;-2.30;99.90
15698;DHT22;7949;48.726;9.102;2023-02-28T05:41:19;-2.30;99.90
15698;DHT22;7949;48.726;9.102;2023-02-28T05:43:47;-2.40;99.90
15698;DHT22;7949;48.726;9.102;2023-02-28T05:46:14;-2.30;99.90
15698;DHT22;7949;48.726;9.102;2023-02-28T05:48:45;-2.30;99.90
15698;DHT22;7949;48.726;9.102;2023-02-28T05:51:13;-2.30;99.90
15698;DHT22;7949;48.726;9.102;2023-02-28T05:53:40;-2.30;99.90
15698;DHT22;7949;48.726;9.102;2023-02-28T05:56:07;-2.30;99.90
15698;DHT22;7949;48.726;9.102;2023-02-28T05:58:34;-2.40;99.90
15698;DHT22;7949;48.726;9.102;2023-02-28T06:01:19;-2.40;99.90
15698;DHT22;7949;48.726;9.102;2023-02-28T06:03:47;-2.30;99.90
15698;DHT22;7949;48.726;9.102;2023-02-28T06:06:15;-2.30;99.90
15698;DHT22;7949;48.726;9.102;2023-02-28T06:08:42;-2.30;99.90
15698;DHT22;7949;48.726;9.102;2023-02-28T06:11:11;-2.30;99.90
15698;DHT22;7949;48.726;9.102;2023-02-28T06:13:38;-2.20;99.90
15698;DHT22;7949;48.726;9.102;2023-02-28T06:16:05;-2.20;99.90
15698;DHT22;7949;48.726;9.102;2023-02-28T06:18:32;-2.30;99.90
15698;DHT22;7949;48.726;9.102;2023-02-28T06:20:59;-2.20;99.90
15698;DHT22;7949;48.726;9.102;2023-02-28T06:23:27;-2.20;99.90
15698;DHT22;7949;48.726;9.102;2023-02-28T06:25:54;-2.30;99.90
15698;DHT22;7949;48.726;9.102;2023-02-28T06:28:23;-2.30;99.90
15698;DHT22;7949;48.726;9.102;2023-02-28T06:30:51;-2.20;99.90
15698;DHT22;7949;48.726;9.102;2023-02-28T06:33:18;-2.20;99.90
15698;DHT22;7949;48.726;9.102;2023-02-28T06:35:46;-2.20;99.90
15698;DHT22;7949;48.726;9.102;2023-02-28T06:38:13;-2.20;99.90
15698;DHT22;7949;48.726;9.102;2023-02-28T06:40:41;-2.10;99.90
15698;DHT22;7949;48.726;9.102;2023-02-28T06:43:09;-2.10;99.90
15698;DHT22;7949;48.726;9.102;2023-02-28T06:45:41;-2.10;99.90
15698;DHT22;7949;48.726;9.102;2023-02-28T06:48:08;-2.00;99.90
15698;DHT22;7949;48.726;9.102;2023-02-28T06:50:35;-2.00;99.90
15698;DHT22;7949;48.726;9.102;2023-02-28T06:53:02;-2.10;99.90
15698;DHT22;7949;48.726;9.102;2023-02-28T06:55:29;-2.00;99.90
15698;DHT22;7949;48.726;9.102;2023-02-28T06:57:58;-2.00;99.90
15698;DHT22;7949;48.726;9.102;2023-02-28T07:00:25;-2.00;99.90
15698;DHT22;7949;48.726;9.102;2023-02-28T07:02:52;-2.00;99.90
15698;DHT22;7949;48.726;9.102;2023-02-28T07:05:20;-2.00;99.90
15698;DHT22;7949;48.726;9.102;2023-02-28T07:07:47;-1.90;99.90
15698;DHT22;7949;48.726;9.102;2023-02-28T07:15:09;-2.00;99.90
15698;DHT22;7949;48.726;9.102;2023-02-28T16:55:42;2.30;99.90
15698;DHT22;7949;48.726;9.102;2023-02-28T16:58:14;2.20;99.90
15698;DHT22;7949;48.726;9.102;2023-02-28T17:00:42;2.20;99.90
15698;DHT22;7949;48.726;9.102;2023-02-28T17:03:19;2.10;99.90
15698;DHT22;7949;48.726;9.102;2023-02-28T17:05:47;2.00;99.90
15698;DHT22;7949;48.726;9.102;2023-02-28T17:08:14;2.00;99.90
15698;DHT22;7949;48.726;9.102;2023-02-28T17:10:43;2.00;99.90
15698;DHT22;7949;48.726;9.102;2023-02-28T17:13:10;1.90;99.90
15698;DHT22;7949;48.726;9.102;2023-02-28T17:15:38;1.90;99.90
15698;DHT22;7949;48.726;9.102;2023-02-28T17:18:06;1.90;99.90
15698;DHT22;7949;48.726;9.102;2023-02-28T17:20:34;1.70;99.90
15698;DHT22;7949;48.726;9.102;2023-02-28T17:23:01;1.70;99.90
15698;DHT22;7949;48.726;9.102;2023-02-28T17:25:28;1.50;99.90
15698;DHT22;7949;48.726;9.102;2023-02-28T17:27:56;1.50;99.90
15698;DHT22;7949;48.726;9.102;2023-02-28T17:30:24;1.50;99.90
15698;DHT22;7949;48.726;9.102;2023-02-28T17:32:52;1.40;99.90
15698;DHT22;7949;48.726;9.102;2023-02-28T17:35:19;1.50;99.90
15698;DHT22;7949;48.726;9.102;2023-02-28T17:37:46;1.50;99.90
15698;DHT22;7949;48.726;9.102;2023-02-28T17:40:14;1.40;99.90
15698;DHT22;7949;48.726;9.102;2023-02-28T17:42:41;1.30;99.90
15698;DHT22;7949;48.726;9.102;2023-02-28T17:45:10;1.30;99.90
15698;DHT22;7949;48.726;9.102;2023-02-28T17:47:37;1.20;99.90
15698;DHT22;7949;48.726;9.102;2023-02-28T17:50:05;1.10;99.90
15698;DHT22;7949;48.726;9.102;2023-02-28T17:52:32;1.10;99.90
15698;DHT22;7949;48.726;9.102;2023-02-28T17:55:02;1.20;99.90
15698;DHT22;7949;48.726;9.102;2023-02-28T17:57:29;1.20;99.90
15698;DHT22;7949;48.726;9.102;2023-02-28T17:59:56;1.00;99.90
15698;DHT22;7949;48.726;9.102;2023-02-28T18:02:24;1.00;99.90
15698;DHT22;7949;48.726;9.102;2023-02-28T18:04:52;1.00;99.90
15698;DHT22;7949;48.726;9.102;2023-02-28T18:07:20;0.90;99.90
15698;DHT22;7949;48.726;9.102;2023-02-28T18:09:48;0.90;99.90
15698;DHT22;7949;48.726;9.102;2023-02-28T18:12:15;0.90;99.90
15698;DHT22;7949;48.726;9.102;2023-02-28T18:14:41;0.80;99.90
15698;DHT22;7949;48.726;9.102;2023-02-28T18:17:11;0.70;99.90
15698;DHT22;7949;48.726;9.102;2023-02-28T18:19:40;0.80;99.90
15698;DHT22;7949;48.726;9.102;2023-02-28T18:22:07;0.80;99.90
15698;DHT22;7949;48.726;9.102;2023-02-28T18:24:34;0.70;99.90
15698;DHT22;7949;48.726;9.102;2023-02-28T18:27:01;0.70;99.90
15698;DHT22;7949;48.726;9.102;2023-02-28T18:29:29;0.70;99.90
15698;DHT22;7949;48.726;9.102;2023-02-28T18:31:57;0.70;99.90
15698;DHT22;7949;48.726;9.102;2023-02-28T18:34:24;0.80;99.90
15698;DHT22;7949;48.726;9.102;2023-02-28T18:36:54;0.70;99.90
15698;DHT22;7949;48.726;9.102;2023-02-28T18:39:22;0.70;99.90
15698;DHT22;7949;48.726;9.102;2023-02-28T18:41:49;0.60;99.90
15698;DHT22;7949;48.726;9.102;2023-02-28T18:44:16;0.60;99.90
15698;DHT22;7949;48.726;9.102;2023-02-28T18:46:43;0.50;99.90
15698;DHT22;7949;48.726;9.102;2023-02-28T18:49:10;0.50;99.90
15698;DHT22;7949;48.726;9.102;2023-02-28T18:51:36;0.40;99.90
15698;DHT22;7949;48.726;9.102;2023-02-28T18:54:05;0.30;99.90
15698;DHT22;7949;48.726;9.102;2023-02-28T18:56:32;0.30;99.90
15698;DHT22;7949;48.726;9.102;2023-02-28T18:58:59;0.30;99.90
15698;DHT22;7949;48.726;9.102;2023-02-28T19:01:28;0.20;99.90
15698;DHT22;7949;48.726;9.102;2023-02-28T19:03:57;0.20;99.90
15698;DHT22;7949;48.726;9.102;2023-02-28T19:06:25;0.10;99.90
15698;DHT22;7949;48.726;9.102;2023-02-28T19:08:54;0.10;99.90
15698;DHT22;7949;48.726;9.102;2023-02-28T19:11:23;0.00;99.90
15698;DHT22;7949;48.726;9.102;2023-02-28T19:13:50;-0.10;99.90
15698;DHT22;7949;48.726;9.102;2023-02-28T19:16:19;-0.20;99.90
15698;DHT22;7949;48.726;9.102;2023-02-28T19:18:46;-0.30;99.90
15698;DHT22;7949;48.726;9.102;2023-02-28T19:21:21;-0.30;99.90
15698;DHT22;7949;48.726;9.102;2023-02-28T19:23:49;-0.40;99.90
15698;DHT22;7949;48.726;9.102;2023-02-28T19:26:17;-0.40;99.90
15698;DHT22;7949;48.726;9.102;2023-02-28T19:28:46;-0.50;99.90
15698;DHT22;7949;48.726;9.102;2023-02-28T19:31:14;-0.60;99.90
15698;DHT22;7949;48.726;9.102;2023-02-28T19:33:41;-0.60;99.90
15698;DHT22;7949;48.726;9.102;2023-02-28T19:36:09;-0.70;99.90
15698;DHT22;7949;48.726;9.102;2023-02-28T19:38:41;-0.70;99.90
15698;DHT22;7949;48.726;9.102;2023-02-28T19:41:10;-0.80;99.90
15698;DHT22;7949;48.726;9.102;2023-02-28T20:20:27;-1.00;99.90
15698;DHT22;7949;48.726;9.102;2023-02-28T20:22:54;-1.10;99.90
15698;DHT22;7949;48.726;9.102;2023-02-28T20:25:21;-1.10;99.90
15698;DHT22;7949;48.726;9.102;2023-02-28T20:27:48;-1.10;99.90
15698;DHT22;7949;48.726;9.102;2023-02-28T20:30:15;-1.20;99.90
15698;DHT22;7949;48.726;9.102;2023-02-28T20:32:46;-1.20;99.90
15698;DHT22;7949;48.726;9.102;2023-02-28T20:35:13;-1.30;99.90
15698;DHT22;7949;48.726;9.102;2023-02-28T20:37:41;-1.40;99.90
15698;DHT22;7949;48.726;9.102;2023-02-28T20:40:10;-1.40;99.90
15698;DHT22;7949;48.726;9.102;2023-02-28T20:42:37;-1.50;99.90
15698;DHT22;7949;48.726;9.102;2023-02-28T20:45:04;-1.50;99.90
15698;DHT22;7949;48.726;9.102;2023-02-28T20:47:31;-1.60;99.90
15698;DHT22;7949;48.726;9.102;2023-02-28T20:49:58;-1.60;99.90
15698;DHT22;7949;48.726;9.102;2023-02-28T20:52:25;-1.70;99.90
15698;DHT22;7949;48.726;9.102;2023-02-28T20:54:53;-1.80;99.90
15698;DHT22;7949;48.726;9.102;2023-02-28T20:57:20;-1.80;99.90
15698;DHT22;7949;48.726;9.102;2023-02-28T20:59:47;-1.90;99.90
15698;DHT22;7949;48.726;9.102;2023-02-28T21:02:15;-2.00;99.90
15698;DHT22;7949;48.726;9.102;2023-02-28T21:04:42;-2.00;99.90
15698;DHT22;7949;48.726;9.102;2023-02-28T21:07:09;-2.00;99.90
15698;DHT22;7949;48.726;9.102;2023-02-28T21:09:36;-2.00;99.90
15698;DHT22;7949;48.726;9.102;2023-02-28T21:12:05;-2.00;99.90
15698;DHT22;7949;48.726;9.102;2023-02-28T21:14:32;-2.10;99.90
15698;DHT22;7949;48.726;9.102;2023-02-28T21:16:59;-2.00;99.90
15698;DHT22;7949;48.726;9.102;2023-02-28T21:19:26;-2.10;99.90
15698;DHT22;7949;48.726;9.102;2023-02-28T21:21:53;-2.10;99.90
15698;DHT22;7949;48.726;9.102;2023-02-28T21:41:45;-2.20;99.90
15698;DHT22;7949;48.726;9.102;2023-02-28T21:44:26;-2.20;99.90
15698;DHT22;7949;48.726;9.102;2023-02-28T21:47:03;-2.20;99.90
15698;DHT22;7949;48.726;9.102;2023-02-28T21:49:30;-2.20;99.90
15698;DHT22;7949;48.726;9.102;2023-02-28T21:51:57;-2.20;99.90
15698;DHT22;7949;48.726;9.102;2023-02-28T21:54:24;-2.20;99.90
15698;DHT22;7949;48.726;9.102;2023-02-28T21:56:54;-2.20;99.90
15698;DHT22;7949;48.726;9.102;2023-02-28T21:59:20;-2.30;99.90
15698;DHT22;7949;48.726;9.102;2023-02-28T22:01:48;-2.30;99.90
15698;DHT22;7949;48.726;9.102;2023-02-28T22:04:16;-2.40;99.90
15698;DHT22;7949;48.726;9.102;2023-02-28T22:06:47;-2.50;99.90
15698;DHT22;7949;48.726;9.102;2023-02-28T22:09:14;-2.50;99.90
15698;DHT22;7949;48.726;9.102;2023-02-28T22:11:44;-2.60;99.90
15698;DHT22;7949;48.726;9.102;2023-02-28T22:14:12;-2.70;99.90
15698;DHT22;7949;48.726;9.102;2023-02-28T22:16:39;-2.70;99.90
15698;DHT22;7949;48.726;9.102;2023-02-28T22:19:07;-2.70;99.90
15698;DHT22;7949;48.726;9.102;2023-02-28T22:21:34;-2.80;99.90
15698;DHT22;7949;48.726;9.102;2023-02-28T22:24:01;-2.80;99.90
15698;DHT22;7949;48.726;9.102;2023-02-28T22:26:28;-2.90;99.90
15698;DHT22;7949;48.726;9.102;2023-02-28T22:28:56;-2.90;99.90
15698;DHT22;7949;48.726;9.102;2023-02-28T22:31:27;-2.90;99.90
15698;DHT22;7949;48.726;9.102;2023-02-28T22:33:56;-2.90;99.90
15698;DHT22;7949;48.726;9.102;2023-02-28T22:36:24;-2.90;99.90
15698;DHT22;7949;48.726;9.102;2023-02-28T22:38:51;-3.00;99.90
15698;DHT22;7949;48.726;9.102;2023-02-28T22:41:19;-3.00;99.90
15698;DHT22;7949;48.726;9.102;2023-02-28T22:43:50;-3.00;99.90
15698;DHT22;7949;48.726;9.102;2023-02-28T22:46:18;-3.10;99.90
15698;DHT22;7949;48.726;9.102;2023-02-28T22:48:47;-3.10;99.90
15698;DHT22;7949;48.726;9.102;2023-02-28T22:51:16;-3.10;99.90
15698;DHT22;7949;48.726;9.102;2023-02-28T22:53:45;-3.20;99.90
15698;DHT22;7949;48.726;9.102;2023-02-28T22:56:14;-3.10;99.90
15698;DHT22;7949;48.726;9.102;2023-02-28T22:58:41;-3.10;99.90
15698;DHT22;7949;48.726;9.102;2023-02-28T23:01:10;-3.10;99.90
15698;DHT22;7949;48.726;9.102;2023-02-28T23:03:38;-3.00;99.90
15698;DHT22;7949;48.726;9.102;2023-02-28T23:06:13;-2.90;99.90
15698;DHT22;7949;48.726;9.102;2023-02-28T23:08:40;-2.80;99.90
15698;DHT22;7949;48.726;9.102;2023-02-28T23:11:07;-2.70;99.90
15698;DHT22;7949;48.726;9.102;2023-02-28T23:13:34;-2.60;99.90
15698;DHT22;7949;48.726;9.102;2023-02-28T23:16:04;-2.50;99.90
15698;DHT22;7949;48.726;9.102;2023-02-28T23:18:31;-2.50;99.90
15698;DHT22;7949;48.726;9.102;2023-02-28T23:20:58;-2.30;99.90
15698;DHT22;7949;48.726;9.102;2023-02-28T23:23:26;-2.30;99.90
15698;DHT22;7949;48.726;9.102;2023-02-28T23:25:52;-2.30;99.90
15698;DHT22;7949;48.726;9.102;2023-02-28T23:28:19;-2.30;99.90
15698;DHT22;7949;48.726;9.102;2023-02-28T23:30:47;-2.40;99.90
15698;DHT22;7949;48.726;9.102;2023-02-28T23:33:14;-2.50;99.90
15698;DHT22;7949;48.726;9.102;2023-02-28T23:35:41;-2.60;99.90
15698;DHT22;7949;48.726;9.102;2023-02-28T23:38:07;-2.60;99.90
15698;DHT22;7949;48.726;9.102;2023-02-28T23:40:35;-2.60;99.90
15698;DHT22;7949;48.726;9.102;2023-02-28T23:43:02;-2.60;99.90
15698;DHT22;7949;48.726;9.102;2023-02-28T23:45:30;-2.70;99.90
15698;DHT22;7949;48.726;9.102;2023-02-28T23:47:56;-2.70;99.90
15698;DHT22;7949;48.726;9.102;2023-02-28T23:50:23;-2.70;99.90
15698;DHT22;7949;48.726;9.102;2023-02-28T23:52:50;-2.60;99.90
15698;DHT22;7949;48.726;9.102;2023-02-28T23:55:18;-2.60;99.90
15698;DHT22;7949;48.726;9.102;2023-02-28T23:57:46;-2.60;99.90
